createdAt,value
2016-05-27T00:00:19.887Z,1008.43
2016-05-27T00:01:19.858Z,1008.42
2016-05-27T00:02:19.845Z,1008.47
2016-05-27T00:03:19.817Z,1008.44
2016-05-27T00:04:19.804Z,1008.43
2016-05-27T00:05:19.775Z,1008.42
2016-05-27T00:06:19.762Z,1008.41
2016-05-27T00:07:19.734Z,1008.44
2016-05-27T00:08:19.705Z,1008.42
2016-05-27T00:09:19.692Z,1008.45
2016-05-27T00:10:19.664Z,1008.4
2016-05-27T00:11:19.650Z,1008.45
2016-05-27T00:12:19.622Z,1008.38
2016-05-27T00:13:19.593Z,1008.41
2016-05-27T00:14:19.581Z,1008.43
2016-05-27T00:15:19.552Z,1008.42
2016-05-27T00:16:19.538Z,1008.4
2016-05-27T00:17:19.510Z,1008.39
2016-05-27T00:18:19.498Z,1008.4
2016-05-27T00:19:19.469Z,1008.43
2016-05-27T00:20:19.457Z,1008.37
2016-05-27T00:21:19.427Z,1008.42
2016-05-27T00:22:19.398Z,1008.38
2016-05-27T00:23:19.386Z,1008.34
2016-05-27T00:24:19.358Z,1008.34
2016-05-27T00:25:19.329Z,1008.32
2016-05-27T00:26:19.316Z,1008.32
2016-05-27T00:27:19.287Z,1008.29
2016-05-27T00:28:19.275Z,1008.32
2016-05-27T00:29:19.245Z,1008.34
2016-05-27T00:30:19.233Z,1008.35
2016-05-27T00:31:19.204Z,1008.33
2016-05-27T00:32:19.176Z,1008.32
2016-05-27T00:33:19.163Z,1008.32
2016-05-27T00:34:19.134Z,1008.31
2016-05-27T00:35:19.121Z,1008.35
2016-05-27T00:36:19.092Z,1008.32
2016-05-27T00:37:19.064Z,1008.31
2016-05-27T00:38:19.052Z,1008.3
2016-05-27T00:39:19.022Z,1008.28
2016-05-27T00:40:19.010Z,1008.25
2016-05-27T00:41:18.981Z,1008.25
2016-05-27T00:42:18.952Z,1008.24
2016-05-27T00:43:18.940Z,1008.21
2016-05-27T00:44:18.911Z,1008.21
2016-05-27T00:45:18.899Z,1008.22
2016-05-27T00:46:18.885Z,1008.19
2016-05-27T00:47:18.857Z,1008.18
2016-05-27T00:48:18.828Z,1008.16
2016-05-27T00:49:18.800Z,1008.14
2016-05-27T00:50:18.787Z,1008.16
2016-05-27T00:51:18.758Z,1008.16
2016-05-27T00:52:18.745Z,1008.16
2016-05-27T00:53:18.717Z,1008.15
2016-05-27T00:54:18.688Z,1008.1
2016-05-27T00:55:18.675Z,1008.16
2016-05-27T00:56:18.646Z,1008.13
2016-05-27T00:57:18.634Z,1008.12
2016-05-27T00:58:18.605Z,1008.11
2016-05-27T00:59:18.577Z,1008.14
2016-05-27T01:00:18.564Z,1008.12
2016-05-27T01:01:18.534Z,1008.15
2016-05-27T01:02:18.507Z,1008.13
2016-05-27T01:03:18.494Z,1008.15
2016-05-27T01:04:18.465Z,1008.13
2016-05-27T01:05:18.452Z,1008.16
2016-05-27T01:06:18.423Z,1008.13
2016-05-27T01:07:18.395Z,1008.18
2016-05-27T01:08:18.382Z,1008.17
2016-05-27T01:09:18.353Z,1008.19
2016-05-27T01:10:18.340Z,1008.23
2016-05-27T01:11:18.311Z,1008.2
2016-05-27T01:12:18.283Z,1008.23
2016-05-27T01:13:18.271Z,1008.24
2016-05-27T01:14:18.242Z,1008.25
2016-05-27T01:15:18.229Z,1008.28
2016-05-27T01:16:18.200Z,1008.26
2016-05-27T01:17:18.172Z,1008.24
2016-05-27T01:18:18.394Z,1008.21
2016-05-27T01:19:18.130Z,1008.26
2016-05-27T01:20:18.118Z,1008.27
2016-05-27T01:21:18.088Z,1008.29
2016-05-27T01:22:18.061Z,1008.28
2016-05-27T01:23:18.047Z,1008.27
2016-05-27T01:24:18.018Z,1008.28
2016-05-27T01:25:17.990Z,1008.32
2016-05-27T01:26:17.977Z,1008.31
2016-05-27T01:27:17.949Z,1008.32
2016-05-27T01:28:17.937Z,1008.29
2016-05-27T01:29:17.907Z,1008.31
2016-05-27T01:30:17.879Z,1008.31
2016-05-27T01:31:17.865Z,1008.26
2016-05-27T01:32:17.837Z,1008.27
2016-05-27T01:33:17.825Z,1008.28
2016-05-27T01:34:17.796Z,1008.3
2016-05-27T01:35:17.783Z,1008.29
2016-05-27T01:36:17.753Z,1008.31
2016-05-27T01:37:17.726Z,1008.26
2016-05-27T01:38:17.713Z,1008.27
2016-05-27T01:39:17.684Z,1008.27
2016-05-27T01:40:17.655Z,1008.3
2016-05-27T01:41:17.642Z,1008.26
2016-05-27T01:42:17.614Z,1008.3
2016-05-27T01:43:17.602Z,1008.3
2016-05-27T01:44:17.572Z,1008.32
2016-05-27T01:45:17.544Z,1008.3
2016-05-27T01:46:17.531Z,1008.31
2016-05-27T01:47:17.502Z,1008.32
2016-05-27T01:48:17.490Z,1008.3
2016-05-27T01:49:17.463Z,1008.34
2016-05-27T01:50:17.470Z,1008.31
2016-05-27T01:51:17.460Z,1008.31
2016-05-27T01:52:17.451Z,1008.34
2016-05-27T01:53:17.458Z,1008.28
2016-05-27T01:54:17.446Z,1008.31
2016-05-27T01:55:17.425Z,1008.31
2016-05-27T01:56:17.403Z,1008.29
2016-05-27T01:57:17.397Z,1008.36
2016-05-27T01:58:17.376Z,1008.34
2016-05-27T01:59:17.368Z,1008.33
2016-05-27T02:00:17.343Z,1008.37
2016-05-27T02:01:17.318Z,1008.38
2016-05-27T02:02:17.306Z,1008.41
2016-05-27T02:03:17.281Z,1008.41
2016-05-27T02:04:17.270Z,1008.41
2016-05-27T02:05:17.242Z,1008.41
2016-05-27T02:06:17.230Z,1008.44
2016-05-27T02:07:17.203Z,1008.38
2016-05-27T02:08:17.176Z,1008.41
2016-05-27T02:09:17.162Z,1008.42
2016-05-27T02:10:17.135Z,1008.39
2016-05-27T02:11:17.121Z,1008.39
2016-05-27T02:12:17.094Z,1008.39
2016-05-27T02:13:17.066Z,1008.38
2016-05-27T02:14:17.052Z,1008.36
2016-05-27T02:15:17.024Z,1008.36
2016-05-27T02:16:17.011Z,1008.33
2016-05-27T02:17:16.983Z,1008.33
2016-05-27T02:18:16.955Z,1008.34
2016-05-27T02:19:16.942Z,1008.33
2016-05-27T02:20:16.913Z,1008.3
2016-05-27T02:21:16.899Z,1008.25
2016-05-27T02:22:16.871Z,1008.19
2016-05-27T02:23:16.843Z,1008.17
2016-05-27T02:24:16.830Z,1008.14
2016-05-27T02:25:16.801Z,1008.15
2016-05-27T02:26:16.773Z,1008.16
2016-05-27T02:27:16.759Z,1008.12
2016-05-27T02:28:16.731Z,1008.09
2016-05-27T02:29:16.703Z,1008.1
2016-05-27T02:30:16.690Z,1008.08
2016-05-27T02:31:16.676Z,1008.12
2016-05-27T02:32:16.648Z,1008.1
2016-05-27T02:33:16.619Z,1008.16
2016-05-27T02:34:16.592Z,1008.15
2016-05-27T02:35:16.578Z,1008.16
2016-05-27T02:36:16.550Z,1008.21
2016-05-27T02:37:16.536Z,1008.2
2016-05-27T02:38:16.509Z,1008.25
2016-05-27T02:39:16.480Z,1008.19
2016-05-27T02:40:16.466Z,1008.24
2016-05-27T02:41:16.438Z,1008.21
2016-05-27T02:42:16.410Z,1008.21
2016-05-27T02:43:16.397Z,1008.22
2016-05-27T02:44:16.369Z,1008.22
2016-05-27T02:45:16.355Z,1008.25
2016-05-27T02:46:16.326Z,1008.21
2016-05-27T02:47:16.298Z,1008.24
2016-05-27T02:48:16.269Z,1008.22
2016-05-27T02:49:16.257Z,1008.24
2016-05-27T02:50:16.228Z,1008.27
2016-05-27T02:51:16.215Z,1008.25
2016-05-27T02:52:16.187Z,1008.27
2016-05-27T02:53:16.174Z,1008.24
2016-05-27T02:54:16.145Z,1008.29
2016-05-27T02:55:16.116Z,1008.28
2016-05-27T02:56:16.088Z,1008.29
2016-05-27T02:57:16.075Z,1008.33
2016-05-27T02:58:16.046Z,1008.34
2016-05-27T02:59:16.034Z,1008.36
2016-05-27T03:00:16.005Z,1008.37
2016-05-27T03:01:15.977Z,1008.4
2016-05-27T03:02:15.964Z,1008.39
2016-05-27T03:03:15.935Z,1008.39
2016-05-27T03:04:15.922Z,1008.37
2016-05-27T03:05:15.893Z,1008.33
2016-05-27T03:06:15.865Z,1008.38
2016-05-27T03:07:15.853Z,1008.35
2016-05-27T03:08:15.823Z,1008.34
2016-05-27T03:09:15.795Z,1008.36
2016-05-27T03:10:15.782Z,1008.32
2016-05-27T03:11:15.753Z,1008.33
2016-05-27T03:12:15.725Z,1008.3
2016-05-27T03:13:15.711Z,1008.36
2016-05-27T03:14:15.684Z,1008.35
2016-05-27T03:15:15.670Z,1008.36
2016-05-27T03:16:15.642Z,1008.36
2016-05-27T03:17:15.613Z,1008.36
2016-05-27T03:18:15.600Z,1008.35
2016-05-27T03:19:15.572Z,1008.35
2016-05-27T03:20:15.559Z,1008.39
2016-05-27T03:21:15.530Z,1008.36
2016-05-27T03:22:15.502Z,1008.35
2016-05-27T03:23:15.489Z,1008.36
2016-05-27T03:24:15.460Z,1008.35
2016-05-27T03:25:15.432Z,1008.37
2016-05-27T03:26:15.418Z,1008.38
2016-05-27T03:27:15.390Z,1008.4
2016-05-27T03:28:15.377Z,1008.43
2016-05-27T03:29:15.349Z,1008.41
2016-05-27T03:30:15.320Z,1008.47
2016-05-27T03:31:15.307Z,1008.51
2016-05-27T03:32:15.279Z,1008.51
2016-05-27T03:33:15.250Z,1008.51
2016-05-27T03:34:15.237Z,1008.51
2016-05-27T03:35:15.209Z,1008.47
2016-05-27T03:36:15.195Z,1008.49
2016-05-27T03:37:15.167Z,1008.48
2016-05-27T03:38:15.139Z,1008.46
2016-05-27T03:39:15.125Z,1008.45
2016-05-27T03:40:15.097Z,1008.47
2016-05-27T03:41:15.084Z,1008.47
2016-05-27T03:42:15.056Z,1008.45
2016-05-27T03:43:15.042Z,1008.46
2016-05-27T03:44:15.014Z,1008.42
2016-05-27T03:45:14.986Z,1008.4
2016-05-27T03:46:14.988Z,1008.39
2016-05-27T03:47:14.944Z,1008.38
2016-05-27T03:48:14.916Z,1008.36
2016-05-27T03:49:15.058Z,1008.39
2016-05-27T03:50:14.874Z,1008.38
2016-05-27T03:51:14.861Z,1008.37
2016-05-27T03:52:14.832Z,1008.37
2016-05-27T03:53:14.819Z,1008.41
2016-05-27T03:54:14.791Z,1008.41
2016-05-27T03:55:14.762Z,1008.41
2016-05-27T03:56:14.749Z,1008.43
2016-05-27T03:57:14.721Z,1008.45
2016-05-27T03:58:14.707Z,1008.45
2016-05-27T03:59:14.679Z,1008.43
2016-05-27T04:00:14.651Z,1008.45
2016-05-27T04:01:14.637Z,1008.46
2016-05-27T04:02:14.609Z,1008.46
2016-05-27T04:03:14.581Z,1008.44
2016-05-27T04:04:15.349Z,1008.46
2016-05-27T04:05:14.539Z,1008.45
2016-05-27T04:06:14.526Z,1008.47
2016-05-27T04:07:14.498Z,1008.46
2016-05-27T04:08:14.484Z,1008.46
2016-05-27T04:09:14.456Z,1008.46
2016-05-27T04:10:14.428Z,1008.45
2016-05-27T04:11:14.415Z,1008.45
2016-05-27T04:12:14.386Z,1008.48
2016-05-27T04:13:14.373Z,1008.45
2016-05-27T04:14:14.344Z,1008.45
2016-05-27T04:15:14.316Z,1008.44
2016-05-27T04:16:14.303Z,1008.45
2016-05-27T04:17:14.275Z,1008.45
2016-05-27T04:18:14.261Z,1008.41
2016-05-27T04:19:14.233Z,1008.43
2016-05-27T04:20:14.205Z,1008.4
2016-05-27T04:21:14.191Z,1008.42
2016-05-27T04:22:14.163Z,1008.41
2016-05-27T04:23:14.150Z,1008.4
2016-05-27T04:24:14.121Z,1008.41
2016-05-27T04:25:14.109Z,1008.47
2016-05-27T04:26:14.080Z,1008.5
2016-05-27T04:27:14.051Z,1008.52
2016-05-27T04:28:14.038Z,1008.48
2016-05-27T04:29:14.010Z,1008.53
2016-05-27T04:30:13.996Z,1008.49
2016-05-27T04:31:13.968Z,1008.48
2016-05-27T04:32:13.940Z,1008.52
2016-05-27T04:33:13.926Z,1008.58
2016-05-27T04:34:14.414Z,1008.6
2016-05-27T04:35:13.885Z,1008.6
2016-05-27T04:36:13.856Z,1008.57
2016-05-27T04:37:13.828Z,1008.6
2016-05-27T04:38:13.815Z,1008.57
2016-05-27T04:39:13.787Z,1008.59
2016-05-27T04:40:13.773Z,1008.56
2016-05-27T04:41:13.745Z,1008.59
2016-05-27T04:42:13.733Z,1008.61
2016-05-27T04:43:13.704Z,1008.62
2016-05-27T04:44:13.675Z,1008.63
2016-05-27T04:45:13.662Z,1008.64
2016-05-27T04:46:13.634Z,1008.66
2016-05-27T04:47:13.621Z,1008.66
2016-05-27T04:48:13.592Z,1008.65
2016-05-27T04:49:13.563Z,1008.68
2016-05-27T04:50:13.550Z,1008.64
2016-05-27T04:51:13.522Z,1008.66
2016-05-27T04:52:13.510Z,1008.69
2016-05-27T04:53:13.480Z,1008.68
2016-05-27T04:54:13.468Z,1008.68
2016-05-27T04:55:13.439Z,1008.62
2016-05-27T04:56:13.410Z,1008.62
2016-05-27T04:57:13.398Z,1008.64
2016-05-27T04:58:13.369Z,1008.57
2016-05-27T04:59:13.357Z,1008.59
2016-05-27T05:00:13.327Z,1008.59
2016-05-27T05:01:13.299Z,1008.56
2016-05-27T05:02:13.286Z,1008.58
2016-05-27T05:03:13.257Z,1008.59
2016-05-27T05:04:13.245Z,1008.55
2016-05-27T05:05:13.231Z,1008.65
2016-05-27T05:06:13.203Z,1008.64
2016-05-27T05:07:13.175Z,1008.64
2016-05-27T05:08:13.162Z,1008.69
2016-05-27T05:09:13.133Z,1008.67
2016-05-27T05:10:13.104Z,1008.66
2016-05-27T05:11:13.092Z,1008.66
2016-05-27T05:12:13.064Z,1008.66
2016-05-27T05:13:13.051Z,1008.67
2016-05-27T05:14:13.037Z,1008.66
2016-05-27T05:15:13.009Z,1008.72
2016-05-27T05:16:12.980Z,1008.72
2016-05-27T05:17:12.967Z,1008.71
2016-05-27T05:18:12.939Z,1008.7
2016-05-27T05:19:12.925Z,1008.71
2016-05-27T05:20:12.897Z,1008.75
2016-05-27T05:21:12.868Z,1008.7
2016-05-27T05:22:12.855Z,1008.69
2016-05-27T05:23:12.843Z,1008.67
2016-05-27T05:24:12.814Z,1008.63
2016-05-27T05:25:12.801Z,1008.58
2016-05-27T05:26:12.772Z,1008.56
2016-05-27T05:27:12.760Z,1008.53
2016-05-27T05:28:12.732Z,1008.56
2016-05-27T05:29:12.703Z,1008.57
2016-05-27T05:30:12.689Z,1008.59
2016-05-27T05:31:12.677Z,1008.6
2016-05-27T05:32:12.649Z,1008.56
2016-05-27T05:33:12.635Z,1008.6
2016-05-27T05:34:12.654Z,1008.62
2016-05-27T05:35:12.579Z,1008.61
2016-05-27T05:36:12.565Z,1008.63
2016-05-27T05:37:12.552Z,1008.61
2016-05-27T05:38:12.524Z,1008.62
2016-05-27T05:39:12.511Z,1008.64
2016-05-27T05:40:12.482Z,1008.65
2016-05-27T05:41:12.453Z,1008.69
2016-05-27T05:42:12.441Z,1008.67
2016-05-27T05:43:12.428Z,1008.64
2016-05-27T05:44:12.399Z,1008.65
2016-05-27T05:45:12.370Z,1008.66
2016-05-27T05:46:12.358Z,1008.64
2016-05-27T05:47:12.328Z,1008.59
2016-05-27T05:48:12.316Z,1008.63
2016-05-27T05:49:12.303Z,1008.61
2016-05-27T05:50:12.275Z,1008.62
2016-05-27T05:51:12.277Z,1008.64
2016-05-27T05:52:12.249Z,1008.67
2016-05-27T05:53:12.204Z,1008.7
2016-05-27T05:54:12.192Z,1008.71
2016-05-27T05:55:12.179Z,1008.75
2016-05-27T05:56:12.166Z,1008.72
2016-05-27T05:57:12.137Z,1008.78
2016-05-27T05:58:12.124Z,1008.74
2016-05-27T05:59:12.096Z,1008.74
2016-05-27T06:00:12.068Z,1008.72
2016-05-27T06:01:12.055Z,1008.68
2016-05-27T06:02:12.041Z,1008.68
2016-05-27T06:03:12.013Z,1008.61
2016-05-27T06:04:11.984Z,1008.64
2016-05-27T06:05:13.127Z,1008.62
2016-05-27T06:06:11.959Z,1008.6
2016-05-27T06:07:11.930Z,1008.61
2016-05-27T06:08:11.917Z,1008.63
2016-05-27T06:09:11.888Z,1008.63
2016-05-27T06:10:11.876Z,1008.67
2016-05-27T06:11:11.847Z,1008.68
2016-05-27T06:12:11.833Z,1008.7
2016-05-27T06:13:11.806Z,1008.68
2016-05-27T06:14:11.792Z,1008.69
2016-05-27T06:15:11.764Z,1008.7
2016-05-27T06:16:11.750Z,1008.67
2016-05-27T06:17:11.723Z,1008.72
2016-05-27T06:18:11.709Z,1008.73
2016-05-27T06:19:11.883Z,1008.73
2016-05-27T06:20:11.668Z,1008.72
2016-05-27T06:21:11.655Z,1008.69
2016-05-27T06:22:11.627Z,1008.67
2016-05-27T06:23:11.613Z,1008.7
2016-05-27T06:24:11.585Z,1008.69
2016-05-27T06:25:11.572Z,1008.7
2016-05-27T06:26:11.543Z,1008.69
2016-05-27T06:27:11.530Z,1008.71
2016-05-27T06:28:11.502Z,1008.69
2016-05-27T06:29:11.489Z,1008.73
2016-05-27T06:30:11.460Z,1008.71
2016-05-27T06:31:11.447Z,1008.71
2016-05-27T06:32:11.419Z,1008.71
2016-05-27T06:33:11.406Z,1008.68
2016-05-27T06:34:11.377Z,1008.72
2016-05-27T06:35:11.365Z,1008.7
2016-05-27T06:36:11.351Z,1008.69
2016-05-27T06:37:11.323Z,1008.7
2016-05-27T06:38:11.310Z,1008.66
2016-05-27T06:39:11.281Z,1008.67
2016-05-27T06:40:11.269Z,1008.68
2016-05-27T06:41:11.240Z,1008.67
2016-05-27T06:42:11.226Z,1008.67
2016-05-27T06:43:11.199Z,1008.68
2016-05-27T06:44:11.186Z,1008.63
2016-05-27T06:45:11.156Z,1008.62
2016-05-27T06:46:11.144Z,1008.58
2016-05-27T06:47:11.115Z,1008.52
2016-05-27T06:48:11.103Z,1008.58
2016-05-27T06:49:11.089Z,1008.55
2016-05-27T06:50:11.061Z,1008.54
2016-05-27T06:51:11.048Z,1008.56
2016-05-27T06:52:11.019Z,1008.55
2016-05-27T06:53:11.006Z,1008.6
2016-05-27T06:54:14.197Z,1008.63
2016-05-27T06:55:10.965Z,1008.62
2016-05-27T06:56:10.953Z,1008.7
2016-05-27T06:57:10.924Z,1008.72
2016-05-27T06:58:10.911Z,1008.69
2016-05-27T06:59:10.882Z,1008.71
2016-05-27T07:00:10.868Z,1008.71
2016-05-27T07:01:10.841Z,1008.69
2016-05-27T07:02:10.828Z,1008.68
2016-05-27T07:03:10.799Z,1008.7
2016-05-27T07:04:10.785Z,1008.69
2016-05-27T07:05:10.774Z,1008.7
2016-05-27T07:06:10.745Z,1008.71
2016-05-27T07:07:10.731Z,1008.7
2016-05-27T07:08:10.704Z,1008.7
2016-05-27T07:09:10.690Z,1008.71
2016-05-27T07:10:10.677Z,1008.71
2016-05-27T07:11:10.648Z,1008.75
2016-05-27T07:12:10.636Z,1008.69
2016-05-27T07:13:10.607Z,1008.69
2016-05-27T07:14:10.594Z,1008.7
2016-05-27T07:15:10.581Z,1008.72
2016-05-27T07:16:10.568Z,1008.7
2016-05-27T07:17:10.539Z,1008.73
2016-05-27T07:18:10.528Z,1008.71
2016-05-27T07:19:10.514Z,1008.69
2016-05-27T07:20:10.486Z,1008.7
2016-05-27T07:21:10.472Z,1008.67
2016-05-27T07:22:10.445Z,1008.71
2016-05-27T07:23:10.431Z,1008.75
2016-05-27T07:24:10.418Z,1008.73
2016-05-27T07:25:10.405Z,1008.73
2016-05-27T07:26:10.377Z,1008.74
2016-05-27T07:27:10.364Z,1008.77
2016-05-27T07:28:10.335Z,1008.75
2016-05-27T07:29:10.322Z,1008.75
2016-05-27T07:30:10.310Z,1008.71
2016-05-27T07:31:10.297Z,1008.74
2016-05-27T07:32:10.268Z,1008.73
2016-05-27T07:33:10.254Z,1008.7
2016-05-27T07:34:10.242Z,1008.75
2016-05-27T07:35:10.213Z,1008.76
2016-05-27T07:36:10.201Z,1008.75
2016-05-27T07:37:10.188Z,1008.74
2016-05-27T07:38:10.174Z,1008.75
2016-05-27T07:39:10.145Z,1008.78
2016-05-27T07:40:10.133Z,1008.77
2016-05-27T07:41:10.120Z,1008.79
2016-05-27T07:42:10.104Z,1008.74
2016-05-27T07:43:10.092Z,1008.7
2016-05-27T07:44:10.078Z,1008.69
2016-05-27T07:45:10.066Z,1008.69
2016-05-27T07:46:10.036Z,1008.68
2016-05-27T07:47:10.024Z,1008.67
2016-05-27T07:48:10.012Z,1008.71
2016-05-27T07:49:10.014Z,1008.65
2016-05-27T07:50:10.031Z,1008.68
2016-05-27T07:51:09.973Z,1008.71
2016-05-27T07:52:09.959Z,1008.7
2016-05-27T07:53:09.930Z,1008.68
2016-05-27T07:54:09.917Z,1008.69
2016-05-27T07:55:09.905Z,1008.67
2016-05-27T07:56:09.891Z,1008.64
2016-05-27T07:57:09.879Z,1008.64
2016-05-27T07:58:09.866Z,1008.62
2016-05-27T07:59:09.869Z,1008.65
2016-05-27T08:00:09.824Z,1008.67
2016-05-27T08:01:09.812Z,1008.71
2016-05-27T08:02:09.799Z,1008.69
2016-05-27T08:03:09.785Z,1008.7
2016-05-27T08:04:09.773Z,1008.73
2016-05-27T08:05:09.760Z,1008.75
2016-05-27T08:06:09.747Z,1008.77
2016-05-27T08:07:09.734Z,1008.76
2016-05-27T08:08:09.721Z,1008.76
2016-05-27T08:09:09.707Z,1008.79
2016-05-27T08:10:09.680Z,1008.81
2016-05-27T08:11:09.667Z,1008.76
2016-05-27T08:12:09.654Z,1008.8
2016-05-27T08:13:09.640Z,1008.77
2016-05-27T08:14:09.629Z,1008.81
2016-05-27T08:15:09.615Z,1008.81
2016-05-27T08:16:09.602Z,1008.78
2016-05-27T08:17:09.589Z,1008.81
2016-05-27T08:18:09.561Z,1008.8
2016-05-27T08:19:09.548Z,1008.8
2016-05-27T08:20:09.534Z,1008.82
2016-05-27T08:21:09.522Z,1008.81
2016-05-27T08:22:09.509Z,1008.81
2016-05-27T08:23:09.495Z,1008.79
2016-05-27T08:24:09.484Z,1008.77
2016-05-27T08:25:09.470Z,1008.82
2016-05-27T08:26:09.457Z,1008.81
2016-05-27T08:27:09.428Z,1008.81
2016-05-27T08:28:09.416Z,1008.77
2016-05-27T08:29:09.403Z,1008.77
2016-05-27T08:30:09.389Z,1008.75
2016-05-27T08:31:09.392Z,1008.73
2016-05-27T08:32:09.364Z,1008.72
2016-05-27T08:33:09.351Z,1008.75
2016-05-27T08:34:09.338Z,1008.71
2016-05-27T08:35:10.107Z,1008.74
2016-05-27T08:36:09.297Z,1008.76
2016-05-27T08:37:09.283Z,1008.73
2016-05-27T08:38:09.271Z,1008.74
2016-05-27T08:39:09.257Z,1008.71
2016-05-27T08:40:09.245Z,1008.73
2016-05-27T08:41:09.232Z,1008.73
2016-05-27T08:42:09.219Z,1008.72
2016-05-27T08:43:09.206Z,1008.76
2016-05-27T08:44:09.177Z,1008.75
2016-05-27T08:45:09.165Z,1008.77
2016-05-27T08:46:09.151Z,1008.77
2016-05-27T08:47:09.139Z,1008.78
2016-05-27T08:48:09.126Z,1008.78
2016-05-27T08:49:09.222Z,1008.73
2016-05-27T08:50:09.100Z,1008.71
2016-05-27T08:51:09.071Z,1008.74
2016-05-27T08:52:09.059Z,1008.69
2016-05-27T08:53:09.046Z,1008.71
2016-05-27T08:54:09.033Z,1008.67
2016-05-27T08:55:09.020Z,1008.69
2016-05-27T08:56:08.991Z,1008.66
2016-05-27T08:57:08.994Z,1008.63
2016-05-27T08:58:08.965Z,1008.68
2016-05-27T08:59:08.952Z,1008.65
2016-05-27T09:00:08.939Z,1008.62
2016-05-27T09:01:08.910Z,1008.63
2016-05-27T09:02:08.898Z,1008.62
2016-05-27T09:03:08.900Z,1008.64
2016-05-27T09:04:08.872Z,1008.63
2016-05-27T09:05:08.859Z,1008.62
2016-05-27T09:06:08.830Z,1008.59
2016-05-27T09:07:08.818Z,1008.64
2016-05-27T09:08:08.805Z,1008.65
2016-05-27T09:09:08.791Z,1008.64
2016-05-27T09:10:08.779Z,1008.7
2016-05-27T09:11:08.766Z,1008.64
2016-05-27T09:12:08.737Z,1008.67
2016-05-27T09:13:08.740Z,1008.66
2016-05-27T09:14:08.711Z,1008.71
2016-05-27T09:15:08.699Z,1008.7
2016-05-27T09:16:08.670Z,1008.73
2016-05-27T09:17:08.656Z,1008.75
2016-05-27T09:18:08.643Z,1008.77
2016-05-27T09:19:08.647Z,1008.82
2016-05-27T09:20:08.618Z,1008.84
2016-05-27T09:21:08.605Z,1008.84
2016-05-27T09:22:08.576Z,1008.86
2016-05-27T09:23:08.563Z,1008.86
2016-05-27T09:24:08.551Z,1008.91
2016-05-27T09:25:08.523Z,1008.91
2016-05-27T09:26:08.509Z,1008.93
2016-05-27T09:27:08.497Z,1008.86
2016-05-27T09:28:08.483Z,1008.9
2016-05-27T09:29:08.470Z,1008.91
2016-05-27T09:30:08.442Z,1008.91
2016-05-27T09:31:08.428Z,1008.89
2016-05-27T09:32:08.416Z,1008.85
2016-05-27T09:33:08.388Z,1008.86
2016-05-27T09:34:08.983Z,1008.86
2016-05-27T09:35:08.783Z,1008.85
2016-05-27T09:36:08.349Z,1008.84
2016-05-27T09:37:08.320Z,1008.85
2016-05-27T09:38:08.322Z,1008.86
2016-05-27T09:39:08.310Z,1008.89
2016-05-27T09:40:08.282Z,1008.85
2016-05-27T09:41:08.424Z,1008.85
2016-05-27T09:42:08.255Z,1008.79
2016-05-27T09:43:08.227Z,1008.8
2016-05-27T09:44:08.213Z,1008.76
2016-05-27T09:45:08.201Z,1008.78
2016-05-27T09:46:08.188Z,1008.79
2016-05-27T09:47:08.175Z,1008.85
2016-05-27T09:48:08.146Z,1008.83
2016-05-27T09:49:08.134Z,1008.85
2016-05-27T09:50:08.120Z,1008.85
2016-05-27T09:51:08.107Z,1008.86
2016-05-27T09:52:08.079Z,1008.83
2016-05-27T09:53:08.066Z,1008.84
2016-05-27T09:54:08.053Z,1008.79
2016-05-27T09:55:08.040Z,1008.85
2016-05-27T09:56:08.028Z,1008.86
2016-05-27T09:57:07.998Z,1008.88
2016-05-27T09:58:07.986Z,1008.87
2016-05-27T09:59:07.972Z,1008.9
2016-05-27T10:00:07.961Z,1008.92
2016-05-27T10:01:07.947Z,1008.83
2016-05-27T10:02:07.934Z,1008.83
2016-05-27T10:03:07.905Z,1008.84
2016-05-27T10:04:07.892Z,1008.89
2016-05-27T10:05:07.879Z,1008.83
2016-05-27T10:06:07.867Z,1008.87
2016-05-27T10:07:07.855Z,1008.87
2016-05-27T10:08:07.841Z,1008.81
2016-05-27T10:09:07.812Z,1008.82
2016-05-27T10:10:07.799Z,1008.84
2016-05-27T10:11:07.785Z,1008.82
2016-05-27T10:12:07.773Z,1008.81
2016-05-27T10:13:07.761Z,1008.79
2016-05-27T10:14:07.748Z,1008.78
2016-05-27T10:15:07.719Z,1008.8
2016-05-27T10:16:07.706Z,1008.8
2016-05-27T10:17:07.693Z,1008.76
2016-05-27T10:18:07.680Z,1008.75
2016-05-27T10:19:07.668Z,1008.77
2016-05-27T10:20:07.639Z,1008.78
2016-05-27T10:21:07.626Z,1008.73
2016-05-27T10:22:07.612Z,1008.76
2016-05-27T10:23:07.600Z,1008.81
2016-05-27T10:24:07.587Z,1008.83
2016-05-27T10:25:07.574Z,1008.76
2016-05-27T10:26:07.670Z,1008.84
2016-05-27T10:27:07.533Z,1008.84
2016-05-27T10:28:09.348Z,1008.82
2016-05-27T10:29:07.506Z,1008.84
2016-05-27T10:30:07.494Z,1008.86
2016-05-27T10:31:07.481Z,1008.89
2016-05-27T10:32:07.467Z,1008.9
2016-05-27T10:33:07.439Z,1008.9
2016-05-27T10:34:07.942Z,1008.91
2016-05-27T10:35:07.772Z,1008.92
2016-05-27T10:36:07.400Z,1008.89
2016-05-27T10:37:07.388Z,1008.91
2016-05-27T10:38:07.374Z,1008.93
2016-05-27T10:39:07.362Z,1008.89
2016-05-27T10:40:07.349Z,1008.96
2016-05-27T10:41:07.320Z,1008.99
2016-05-27T10:42:07.324Z,1008.96
2016-05-27T10:43:07.310Z,1008.96
2016-05-27T10:44:07.297Z,1008.96
2016-05-27T10:45:07.285Z,1008.93
2016-05-27T10:46:07.255Z,1008.91
2016-05-27T10:47:07.243Z,1008.94
2016-05-27T10:48:07.229Z,1008.91
2016-05-27T10:49:07.217Z,1008.9
2016-05-27T10:50:07.203Z,1008.9
2016-05-27T10:51:07.175Z,1008.9
2016-05-27T10:52:07.163Z,1008.87
2016-05-27T10:53:07.149Z,1008.89
2016-05-27T10:54:07.136Z,1008.92
2016-05-27T10:55:07.123Z,1008.88
2016-05-27T10:56:07.095Z,1008.86
2016-05-27T10:57:07.123Z,1008.86
2016-05-27T10:58:07.121Z,1008.83
2016-05-27T10:59:07.149Z,1008.86
2016-05-27T11:00:07.145Z,1008.87
2016-05-27T11:01:07.159Z,1008.83
2016-05-27T11:02:07.155Z,1008.83
2016-05-27T11:03:07.152Z,1008.83
2016-05-27T11:04:07.148Z,1008.86
2016-05-27T11:05:07.284Z,1008.87
2016-05-27T11:06:07.297Z,1008.88
2016-05-27T11:07:07.115Z,1008.84
2016-05-27T11:08:07.106Z,1008.87
2016-05-27T11:09:07.096Z,1008.86
2016-05-27T11:10:07.087Z,1008.9
2016-05-27T11:11:07.078Z,1008.86
2016-05-27T11:12:07.065Z,1008.9
2016-05-27T11:13:07.038Z,1008.91
2016-05-27T11:14:07.025Z,1008.92
2016-05-27T11:15:07.015Z,1008.95
2016-05-27T11:16:07.003Z,1008.91
2016-05-27T11:17:06.991Z,1008.93
2016-05-27T11:18:06.978Z,1008.94
2016-05-27T11:19:07.167Z,1008.94
2016-05-27T11:20:06.953Z,1008.93
2016-05-27T11:21:06.924Z,1008.93
2016-05-27T11:22:06.912Z,1008.9
2016-05-27T11:23:06.899Z,1008.88
2016-05-27T11:24:06.887Z,1008.87
2016-05-27T11:25:06.874Z,1008.84
2016-05-27T11:26:06.862Z,1008.82
2016-05-27T11:27:06.849Z,1008.89
2016-05-27T11:28:06.836Z,1008.87
2016-05-27T11:29:06.822Z,1008.87
2016-05-27T11:30:06.810Z,1008.85
2016-05-27T11:31:06.796Z,1008.87
2016-05-27T11:32:06.784Z,1008.83
2016-05-27T11:33:06.755Z,1008.81
2016-05-27T11:34:06.742Z,1008.79
2016-05-27T11:35:06.730Z,1008.8
2016-05-27T11:36:06.716Z,1008.79
2016-05-27T11:37:06.703Z,1008.78
2016-05-27T11:38:06.707Z,1008.79
2016-05-27T11:39:06.693Z,1008.79
2016-05-27T11:40:06.665Z,1008.75
2016-05-27T11:41:06.637Z,1008.8
2016-05-27T11:42:06.639Z,1008.76
2016-05-27T11:43:06.642Z,1008.8
2016-05-27T11:44:06.613Z,1008.82
2016-05-27T11:45:06.584Z,1008.73
2016-05-27T11:46:06.572Z,1008.77
2016-05-27T11:47:06.559Z,1008.78
2016-05-27T11:48:06.545Z,1008.79
2016-05-27T11:49:06.533Z,1008.77
2016-05-27T11:50:06.504Z,1008.76
2016-05-27T11:51:07.694Z,1008.78
2016-05-27T11:52:06.479Z,1008.75
2016-05-27T11:53:06.466Z,1008.73
2016-05-27T11:54:06.452Z,1008.75
2016-05-27T11:55:06.439Z,1008.79
2016-05-27T11:56:06.427Z,1008.83
2016-05-27T11:57:06.413Z,1008.81
2016-05-27T11:58:06.385Z,1008.84
2016-05-27T11:59:06.372Z,1008.79
2016-05-27T12:00:06.359Z,1008.79
2016-05-27T12:01:06.347Z,1008.8
2016-05-27T12:02:06.333Z,1008.79
2016-05-27T12:03:06.321Z,1008.73
2016-05-27T12:04:06.307Z,1008.77
2016-05-27T12:05:06.279Z,1008.75
2016-05-27T12:06:06.266Z,1008.74
2016-05-27T12:07:06.254Z,1008.77
2016-05-27T12:08:06.240Z,1008.72